sensor_id;sensor_type;location;lat;lon;timestamp;pressure;altitude;pressure_sealevel;temperature;humidity
21803;BME280;18591;47.080;22.214;2022-11-15T00:02:07;100054.94;;;10.21;55.64
21803;BME280;18591;47.080;22.214;2022-11-15T00:04:27;100051.50;;;10.16;55.41
21803;BME280;18591;47.080;22.214;2022-11-15T00:06:48;100060.41;;;10.18;55.30
21803;BME280;18591;47.080;22.214;2022-11-15T00:09:09;100059.47;;;10.19;55.61
21803;BME280;18591;47.080;22.214;2022-11-15T00:11:30;100058.84;;;10.09;56.12
21803;BME280;18591;47.080;22.214;2022-11-15T00:13:51;100063.34;;;10.09;56.26
21803;BME280;18591;47.080;22.214;2022-11-15T00:16:15;100062.47;;;10.08;56.04
21803;BME280;18591;47.080;22.214;2022-11-15T00:18:36;100057.13;;;10.07;56.20
21803;BME280;18591;47.080;22.214;2022-11-15T00:21:04;100053.78;;;9.98;56.29
21803;BME280;18591;47.080;22.214;2022-11-15T00:23:25;100054.84;;;9.93;56.76
21803;BME280;18591;47.080;22.214;2022-11-15T00:25:51;100052.94;;;9.96;56.46
21803;BME280;18591;47.080;22.214;2022-11-15T00:28:19;100041.31;;;9.97;56.81
21803;BME280;18591;47.080;22.214;2022-11-15T00:30:42;100042.25;;;9.95;56.67
21803;BME280;18591;47.080;22.214;2022-11-15T00:33:04;100030.44;;;10.02;56.38
21803;BME280;18591;47.080;22.214;2022-11-15T00:35:25;100029.69;;;9.97;56.91
21803;BME280;18591;47.080;22.214;2022-11-15T00:37:47;100030.66;;;9.94;56.96
21803;BME280;18591;47.080;22.214;2022-11-15T00:40:09;100022.53;;;9.96;56.57
21803;BME280;18591;47.080;22.214;2022-11-15T00:42:30;100018.13;;;9.93;56.62
21803;BME280;18591;47.080;22.214;2022-11-15T00:44:50;100023.56;;;9.92;56.31
21803;BME280;18591;47.080;22.214;2022-11-15T00:47:11;100012.13;;;9.84;56.87
21803;BME280;18591;47.080;22.214;2022-11-15T00:49:32;100023.72;;;9.86;56.71
21803;BME280;18591;47.080;22.214;2022-11-15T00:51:53;100018.22;;;9.90;56.42
21803;BME280;18591;47.080;22.214;2022-11-15T00:54:13;100015.44;;;9.93;56.27
21803;BME280;18591;47.080;22.214;2022-11-15T00:56:34;100007.63;;;9.86;56.18
21803;BME280;18591;47.080;22.214;2022-11-15T00:58:54;100012.00;;;9.90;56.26
21803;BME280;18591;47.080;22.214;2022-11-15T01:01:15;100004.91;;;9.87;56.24
21803;BME280;18591;47.080;22.214;2022-11-15T01:03:37;100005.88;;;9.85;56.36
21803;BME280;18591;47.080;22.214;2022-11-15T01:05:59;100001.41;;;9.84;56.37
21803;BME280;18591;47.080;22.214;2022-11-15T01:08:20;100000.44;;;9.86;56.35
21803;BME280;18591;47.080;22.214;2022-11-15T01:10:41;99999.75;;;9.79;56.57
21803;BME280;18591;47.080;22.214;2022-11-15T01:13:02;100001.63;;;9.76;56.68
21803;BME280;18591;47.080;22.214;2022-11-15T01:15:23;100000.91;;;9.69;56.78
21803;BME280;18591;47.080;22.214;2022-11-15T01:17:43;99996.53;;;9.67;57.12
21803;BME280;18591;47.080;22.214;2022-11-15T01:23:28;99979.41;;;9.71;56.51
21803;BME280;18591;47.080;22.214;2022-11-15T01:25:49;99986.56;;;9.70;56.72
21803;BME280;18591;47.080;22.214;2022-11-15T01:28:10;99981.09;;;9.75;56.42
21803;BME280;18591;47.080;22.214;2022-11-15T01:30:31;99984.81;;;9.69;56.68
21803;BME280;18591;47.080;22.214;2022-11-15T01:32:51;99990.22;;;9.68;56.53
21803;BME280;18591;47.080;22.214;2022-11-15T01:35:12;99992.00;;;9.69;56.50
21803;BME280;18591;47.080;22.214;2022-11-15T01:37:33;99987.50;;;9.69;56.17
21803;BME280;18591;47.080;22.214;2022-11-15T01:39:53;99984.91;;;9.66;56.49
21803;BME280;18591;47.080;22.214;2022-11-15T01:42:14;99977.78;;;9.65;56.65
21803;BME280;18591;47.080;22.214;2022-11-15T01:44:39;99984.06;;;9.64;56.69
21803;BME280;18591;47.080;22.214;2022-11-15T01:47:07;99977.84;;;9.64;56.49
21803;BME280;18591;47.080;22.214;2022-11-15T01:49:32;99978.72;;;9.63;56.46
21803;BME280;18591;47.080;22.214;2022-11-15T01:51:54;99975.19;;;9.60;56.27
21803;BME280;18591;47.080;22.214;2022-11-15T01:58:08;99977.34;;;9.48;57.06
21803;BME280;18591;47.080;22.214;2022-11-15T02:00:31;99972.16;;;9.42;57.44
21803;BME280;18591;47.080;22.214;2022-11-15T02:02:52;99965.91;;;9.41;57.02
21803;BME280;18591;47.080;22.214;2022-11-15T02:05:13;99968.50;;;9.44;57.23
21803;BME280;18591;47.080;22.214;2022-11-15T02:07:35;99965.72;;;9.47;57.13
21803;BME280;18591;47.080;22.214;2022-11-15T02:10:01;99968.41;;;9.47;57.43
21803;BME280;18591;47.080;22.214;2022-11-15T02:12:23;99964.78;;;9.50;57.25
21803;BME280;18591;47.080;22.214;2022-11-15T02:14:47;99965.03;;;9.41;57.47
21803;BME280;18591;47.080;22.214;2022-11-15T02:30:24;99961.09;;;9.20;58.96
21803;BME280;18591;47.080;22.214;2022-11-15T02:35:57;99964.53;;;9.25;58.74
21803;BME280;18591;47.080;22.214;2022-11-15T02:41:00;99969.09;;;9.23;58.69
21803;BME280;18591;47.080;22.214;2022-11-15T02:43:29;99963.78;;;9.20;58.74
21803;BME280;18591;47.080;22.214;2022-11-15T02:49:19;99962.00;;;9.20;58.38
21803;BME280;18591;47.080;22.214;2022-11-15T02:51:40;99959.41;;;9.17;58.77
21803;BME280;18591;47.080;22.214;2022-11-15T02:54:02;99967.50;;;9.14;58.55
21803;BME280;18591;47.080;22.214;2022-11-15T02:56:22;99957.72;;;9.11;58.71
21803;BME280;18591;47.080;22.214;2022-11-15T03:01:53;99959.84;;;8.99;59.38
21803;BME280;18591;47.080;22.214;2022-11-15T03:04:19;99955.13;;;9.10;58.86
21803;BME280;18591;47.080;22.214;2022-11-15T03:06:52;99953.28;;;9.12;58.79
21803;BME280;18591;47.080;22.214;2022-11-15T03:09:35;99944.41;;;9.08;58.64
21803;BME280;18591;47.080;22.214;2022-11-15T03:12:07;99953.41;;;9.06;58.69
21803;BME280;18591;47.080;22.214;2022-11-15T03:14:35;99947.84;;;9.15;58.46
21803;BME280;18591;47.080;22.214;2022-11-15T03:19:32;99950.31;;;9.23;57.89
21803;BME280;18591;47.080;22.214;2022-11-15T03:21:55;99950.22;;;9.26;57.81
21803;BME280;18591;47.080;22.214;2022-11-15T03:24:43;99952.09;;;9.22;57.63
21803;BME280;18591;47.080;22.214;2022-11-15T03:27:06;99944.94;;;9.23;58.21
21803;BME280;18591;47.080;22.214;2022-11-15T03:29:35;99943.22;;;9.20;57.82
21803;BME280;18591;47.080;22.214;2022-11-15T03:32:02;99945.75;;;9.25;57.82
21803;BME280;18591;47.080;22.214;2022-11-15T03:34:36;99935.03;;;9.25;57.77
21803;BME280;18591;47.080;22.214;2022-11-15T03:36:58;99934.16;;;9.26;57.73
21803;BME280;18591;47.080;22.214;2022-11-15T03:39:19;99934.09;;;9.27;57.55
21803;BME280;18591;47.080;22.214;2022-11-15T03:41:48;99935.84;;;9.28;57.38
21803;BME280;18591;47.080;22.214;2022-11-15T03:46:48;99932.34;;;9.26;57.37
21803;BME280;18591;47.080;22.214;2022-11-15T03:49:19;99929.00;;;9.16;57.77
21803;BME280;18591;47.080;22.214;2022-11-15T03:51:43;99929.97;;;9.14;57.77
21803;BME280;18591;47.080;22.214;2022-11-15T03:54:04;99925.66;;;9.08;58.12
21803;BME280;18591;47.080;22.214;2022-11-15T03:56:28;99931.97;;;9.06;58.18
21803;BME280;18591;47.080;22.214;2022-11-15T03:58:49;99922.94;;;9.10;57.83
21803;BME280;18591;47.080;22.214;2022-11-15T04:01:09;99929.28;;;9.06;58.34
21803;BME280;18591;47.080;22.214;2022-11-15T04:03:30;99925.75;;;9.04;58.22
21803;BME280;18591;47.080;22.214;2022-11-15T04:05:50;99924.03;;;9.01;58.17
21803;BME280;18591;47.080;22.214;2022-11-15T04:08:11;99924.03;;;9.01;58.01
21803;BME280;18591;47.080;22.214;2022-11-15T04:10:32;99932.25;;;8.95;58.83
21803;BME280;18591;47.080;22.214;2022-11-15T04:12:53;99932.16;;;8.98;58.71
21803;BME280;18591;47.080;22.214;2022-11-15T04:15:16;99930.44;;;8.96;58.33
21803;BME280;18591;47.080;22.214;2022-11-15T04:17:42;99930.44;;;8.96;58.48
21803;BME280;18591;47.080;22.214;2022-11-15T04:20:05;99934.81;;;9.00;58.18
21803;BME280;18591;47.080;22.214;2022-11-15T04:22:44;99942.81;;;9.01;58.04
21803;BME280;18591;47.080;22.214;2022-11-15T04:25:24;99925.66;;;9.08;58.27
21803;BME280;18591;47.080;22.214;2022-11-15T04:27:51;99929.97;;;9.14;57.66
21803;BME280;18591;47.080;22.214;2022-11-15T04:30:11;99915.56;;;9.18;57.71
21803;BME280;18591;47.080;22.214;2022-11-15T04:32:32;99918.34;;;9.15;57.63
21803;BME280;18591;47.080;22.214;2022-11-15T04:34:52;99921.03;;;9.15;57.58
21803;BME280;18591;47.080;22.214;2022-11-15T04:37:13;99914.09;;;9.06;57.62
21803;BME280;18591;47.080;22.214;2022-11-15T04:39:35;99909.69;;;9.04;57.86
21803;BME280;18591;47.080;22.214;2022-11-15T04:41:56;99913.28;;;9.03;57.84
21803;BME280;18591;47.080;22.214;2022-11-15T04:44:17;99912.44;;;9.02;57.79
21803;BME280;18591;47.080;22.214;2022-11-15T04:46:37;99899.13;;;8.98;58.14
21803;BME280;18591;47.080;22.214;2022-11-15T04:48:58;99909.97;;;8.93;58.23
21803;BME280;18591;47.080;22.214;2022-11-15T04:51:19;99912.81;;;8.87;58.59
21803;BME280;18591;47.080;22.214;2022-11-15T04:54:05;99924.41;;;8.87;58.51
21803;BME280;18591;47.080;22.214;2022-11-15T04:56:27;99916.38;;;8.87;58.13
21803;BME280;18591;47.080;22.214;2022-11-15T04:58:52;99915.50;;;8.87;58.45
21803;BME280;18591;47.080;22.214;2022-11-15T05:01:14;99916.25;;;8.92;58.22
21803;BME280;18591;47.080;22.214;2022-11-15T05:03:35;99922.50;;;8.92;58.36
21803;BME280;18591;47.080;22.214;2022-11-15T05:06:14;99912.50;;;8.99;58.14
21803;BME280;18591;47.080;22.214;2022-11-15T05:08:37;99914.25;;;9.00;58.10
21803;BME280;18591;47.080;22.214;2022-11-15T05:10:58;99901.91;;;8.94;57.82
21803;BME280;18591;47.080;22.214;2022-11-15T05:13:19;99912.63;;;8.94;58.25
21803;BME280;18591;47.080;22.214;2022-11-15T05:15:40;99908.91;;;8.99;57.95
21803;BME280;18591;47.080;22.214;2022-11-15T05:18:01;99917.13;;;8.92;57.77
21803;BME280;18591;47.080;22.214;2022-11-15T05:20:23;99908.22;;;8.92;57.68
21803;BME280;18591;47.080;22.214;2022-11-15T05:22:44;99903.66;;;8.96;57.87
21803;BME280;18591;47.080;22.214;2022-11-15T05:25:06;99906.41;;;8.92;57.84
21803;BME280;18591;47.080;22.214;2022-11-15T05:27:26;99908.22;;;8.92;57.79
21803;BME280;18591;47.080;22.214;2022-11-15T05:29:47;99904.72;;;8.88;57.90
21803;BME280;18591;47.080;22.214;2022-11-15T05:32:09;99906.41;;;8.92;57.89
21803;BME280;18591;47.080;22.214;2022-11-15T05:34:30;99919.13;;;8.84;58.31
21803;BME280;18591;47.080;22.214;2022-11-15T05:36:51;99902.97;;;8.87;58.06
21803;BME280;18591;47.080;22.214;2022-11-15T05:39:12;99898.41;;;8.91;57.70
21803;BME280;18591;47.080;22.214;2022-11-15T05:41:53;99900.41;;;8.83;58.07
21803;BME280;18591;47.080;22.214;2022-11-15T05:44:17;99892.53;;;8.77;58.16
21803;BME280;18591;47.080;22.214;2022-11-15T05:46:40;99903.09;;;8.83;58.14
21803;BME280;18591;47.080;22.214;2022-11-15T05:49:04;99899.91;;;8.67;58.37
21803;BME280;18591;47.080;22.214;2022-11-15T05:51:27;99890.84;;;8.72;58.39
21803;BME280;18591;47.080;22.214;2022-11-15T05:53:50;99900.56;;;8.77;57.96
21803;BME280;18591;47.080;22.214;2022-11-15T05:56:12;99901.44;;;8.77;57.91
21803;BME280;18591;47.080;22.214;2022-11-15T05:58:36;99899.81;;;8.71;58.16
21803;BME280;18591;47.080;22.214;2022-11-15T06:00:57;99905.16;;;8.71;58.07
21803;BME280;18591;47.080;22.214;2022-11-15T06:03:24;99910.34;;;8.78;58.42
21803;BME280;18591;47.080;22.214;2022-11-15T06:05:45;99901.22;;;8.86;58.10
21803;BME280;18591;47.080;22.214;2022-11-15T06:08:06;99908.34;;;8.87;57.95
21803;BME280;18591;47.080;22.214;2022-11-15T06:10:26;99902.97;;;8.87;58.56
21803;BME280;18591;47.080;22.214;2022-11-15T06:13:02;99906.44;;;8.91;58.13
21803;BME280;18591;47.080;22.214;2022-11-15T06:15:23;99901.72;;;9.01;58.24
21803;BME280;18591;47.080;22.214;2022-11-15T06:17:43;99902.75;;;8.97;58.79
21803;BME280;18591;47.080;22.214;2022-11-15T06:20:04;99903.63;;;8.97;58.60
21803;BME280;18591;47.080;22.214;2022-11-15T06:22:25;99904.19;;;9.10;58.82
21803;BME280;18591;47.080;22.214;2022-11-15T06:24:45;99910.22;;;9.18;58.53
21803;BME280;18591;47.080;22.214;2022-11-15T06:27:06;99915.47;;;9.23;58.87
21803;BME280;18591;47.080;22.214;2022-11-15T06:29:27;99911.66;;;9.31;58.52
21803;BME280;18591;47.080;22.214;2022-11-15T06:31:48;99913.16;;;9.42;58.57
21803;BME280;18591;47.080;22.214;2022-11-15T06:34:09;99910.00;;;9.58;58.31
21803;BME280;18591;47.080;22.214;2022-11-15T06:36:29;99902.63;;;9.67;58.24
21803;BME280;18591;47.080;22.214;2022-11-15T06:38:50;99906.66;;;9.81;57.74
21803;BME280;18591;47.080;22.214;2022-11-15T06:45:00;99904.31;;;10.00;57.97
21803;BME280;18591;47.080;22.214;2022-11-15T06:47:21;99894.22;;;10.09;57.92
21803;BME280;18591;47.080;22.214;2022-11-15T06:49:42;99893.94;;;10.18;57.98
21803;BME280;18591;47.080;22.214;2022-11-15T06:52:03;99890.09;;;10.27;57.78
21803;BME280;18591;47.080;22.214;2022-11-15T06:54:24;99889.22;;;10.26;57.77
21803;BME280;18591;47.080;22.214;2022-11-15T06:56:45;99881.72;;;10.37;57.45
21803;BME280;18591;47.080;22.214;2022-11-15T06:59:06;99895.63;;;10.50;57.87
21803;BME280;18591;47.080;22.214;2022-11-15T07:01:26;99890.16;;;10.53;57.85
21803;BME280;18591;47.080;22.214;2022-11-15T07:03:49;99896.81;;;10.70;57.91
21803;BME280;18591;47.080;22.214;2022-11-15T07:06:10;99894.69;;;10.79;57.72
21803;BME280;18591;47.080;22.214;2022-11-15T07:08:31;99884.75;;;10.81;57.34
21803;BME280;18591;47.080;22.214;2022-11-15T07:10:52;99874.41;;;10.96;57.49
21803;BME280;18591;47.080;22.214;2022-11-15T07:13:13;99874.97;;;11.05;57.17
21803;BME280;18591;47.080;22.214;2022-11-15T07:15:33;99879.03;;;11.17;56.90
21803;BME280;18591;47.080;22.214;2022-11-15T07:17:54;99875.19;;;11.24;57.15
21803;BME280;18591;47.080;22.214;2022-11-15T07:20:18;99875.81;;;11.32;56.82
21803;BME280;18591;47.080;22.214;2022-11-15T07:22:42;99878.28;;;11.39;56.73
21803;BME280;18591;47.080;22.214;2022-11-15T07:25:03;99872.47;;;11.51;56.60
21803;BME280;18591;47.080;22.214;2022-11-15T07:27:24;99878.19;;;11.65;56.32
21803;BME280;18591;47.080;22.214;2022-11-15T07:29:44;99883.09;;;11.79;56.47
21803;BME280;18591;47.080;22.214;2022-11-15T07:32:05;99888.97;;;11.90;56.60
21803;BME280;18591;47.080;22.214;2022-11-15T07:34:26;99894.75;;;12.03;56.30
21803;BME280;18591;47.080;22.214;2022-11-15T07:36:46;99895.63;;;12.04;56.78
21803;BME280;18591;47.080;22.214;2022-11-15T07:39:07;99889.81;;;12.14;56.83
21803;BME280;18591;47.080;22.214;2022-11-15T07:41:28;99883.22;;;12.23;56.45
21803;BME280;18591;47.080;22.214;2022-11-15T07:43:53;99881.97;;;12.32;56.08
21803;BME280;18591;47.080;22.214;2022-11-15T07:46:13;99883.41;;;12.40;55.61
21803;BME280;18591;47.080;22.214;2022-11-15T07:48:36;99875.81;;;12.50;55.73
21803;BME280;18591;47.080;22.214;2022-11-15T07:51:04;99877.38;;;12.56;55.45
21803;BME280;18591;47.080;22.214;2022-11-15T07:53:32;99871.06;;;12.57;55.13
21803;BME280;18591;47.080;22.214;2022-11-15T07:55:53;99885.97;;;12.66;55.17
21803;BME280;18591;47.080;22.214;2022-11-15T07:58:14;99872.38;;;12.69;54.19
21803;BME280;18591;47.080;22.214;2022-11-15T08:00:35;99876.56;;;12.76;54.40
21803;BME280;18591;47.080;22.214;2022-11-15T08:03:22;99875.66;;;12.77;53.53
21803;BME280;18591;47.080;22.214;2022-11-15T08:05:50;99872.63;;;12.84;54.41
21803;BME280;18591;47.080;22.214;2022-11-15T08:08:11;99880.19;;;12.97;55.05
21803;BME280;18591;47.080;22.214;2022-11-15T08:10:32;99869.97;;;13.05;55.10
21803;BME280;18591;47.080;22.214;2022-11-15T08:13:02;99868.59;;;13.15;54.71
21803;BME280;18591;47.080;22.214;2022-11-15T08:15:23;99864.69;;;13.22;54.45
21803;BME280;18591;47.080;22.214;2022-11-15T08:17:44;99868.97;;;13.28;54.00
21803;BME280;18591;47.080;22.214;2022-11-15T08:20:05;99861.19;;;13.41;54.37
21803;BME280;18591;47.080;22.214;2022-11-15T08:22:26;99863.34;;;13.53;54.32
21803;BME280;18591;47.080;22.214;2022-11-15T08:24:46;99860.41;;;13.59;54.33
21803;BME280;18591;47.080;22.214;2022-11-15T08:27:07;99854.66;;;13.67;54.27
21803;BME280;18591;47.080;22.214;2022-11-15T08:29:35;99859.09;;;13.68;54.42
21803;BME280;18591;47.080;22.214;2022-11-15T08:31:56;99860.63;;;13.73;54.88
21803;BME280;18591;47.080;22.214;2022-11-15T08:34:17;99861.50;;;13.74;54.82
21803;BME280;18591;47.080;22.214;2022-11-15T08:36:41;99857.00;;;13.75;54.85
21803;BME280;18591;47.080;22.214;2022-11-15T08:39:05;99859.47;;;13.79;54.49
21803;BME280;18591;47.080;22.214;2022-11-15T08:41:33;99863.19;;;13.77;54.25
21803;BME280;18591;47.080;22.214;2022-11-15T08:43:56;99862.63;;;13.89;54.18
21803;BME280;18591;47.080;22.214;2022-11-15T08:46:17;99856.94;;;13.95;53.95
21803;BME280;18591;47.080;22.214;2022-11-15T08:48:38;99853.06;;;14.01;53.80
21803;BME280;18591;47.080;22.214;2022-11-15T08:50:59;99850.22;;;14.04;54.05
21803;BME280;18591;47.080;22.214;2022-11-15T08:53:45;99841.16;;;14.05;52.58
21803;BME280;18591;47.080;22.214;2022-11-15T08:56:08;99840.72;;;14.14;53.58
21803;BME280;18591;47.080;22.214;2022-11-15T08:58:29;99841.38;;;14.19;53.27
21803;BME280;18591;47.080;22.214;2022-11-15T09:00:50;99838.47;;;14.24;53.50
21803;BME280;18591;47.080;22.214;2022-11-15T09:03:11;99822.09;;;14.27;53.66
21803;BME280;18591;47.080;22.214;2022-11-15T09:05:32;99830.84;;;14.32;53.65
21803;BME280;18591;47.080;22.214;2022-11-15T09:07:55;99827.19;;;14.33;53.44
21803;BME280;18591;47.080;22.214;2022-11-15T09:10:16;99827.06;;;14.36;53.44
21803;BME280;18591;47.080;22.214;2022-11-15T09:12:37;99812.44;;;14.40;53.75
21803;BME280;18591;47.080;22.214;2022-11-15T09:14:58;99817.69;;;14.43;53.23
21803;BME280;18591;47.080;22.214;2022-11-15T09:17:19;99825.63;;;14.46;53.57
21803;BME280;18591;47.080;22.214;2022-11-15T09:20:08;99820.00;;;14.51;52.62
21803;BME280;18591;47.080;22.214;2022-11-15T09:22:29;99816.78;;;14.62;52.79
21803;BME280;18591;47.080;22.214;2022-11-15T09:24:49;99821.97;;;14.66;53.51
21803;BME280;18591;47.080;22.214;2022-11-15T09:27:10;99820.88;;;14.70;53.49
21803;BME280;18591;47.080;22.214;2022-11-15T09:29:32;99814.28;;;14.76;53.61
21803;BME280;18591;47.080;22.214;2022-11-15T09:31:52;99809.44;;;14.83;53.03
21803;BME280;18591;47.080;22.214;2022-11-15T09:34:13;99804.66;;;14.88;53.09
21803;BME280;18591;47.080;22.214;2022-11-15T09:36:34;99802.44;;;14.96;53.02
21803;BME280;18591;47.080;22.214;2022-11-15T09:38:57;99801.28;;;15.00;52.12
21803;BME280;18591;47.080;22.214;2022-11-15T09:41:38;99800.19;;;15.04;51.53
21803;BME280;18591;47.080;22.214;2022-11-15T09:44:42;99799.09;;;15.08;51.91
21803;BME280;18591;47.080;22.214;2022-11-15T09:49:29;99778.34;;;15.24;52.00
21803;BME280;18591;47.080;22.214;2022-11-15T09:51:53;99772.78;;;15.28;51.92
21803;BME280;18591;47.080;22.214;2022-11-15T09:56:31;99761.91;;;15.45;51.28
21803;BME280;18591;47.080;22.214;2022-11-15T10:01:10;99759.81;;;15.50;50.75
21803;BME280;18591;47.080;22.214;2022-11-15T10:03:40;99754.25;;;15.53;49.90
21803;BME280;18591;47.080;22.214;2022-11-15T10:05:47;99767.34;;;15.61;51.22
21803;BME280;18591;47.080;22.214;2022-11-15T10:08:03;99765.63;;;15.60;49.85
21803;BME280;18591;47.080;22.214;2022-11-15T10:10:40;99758.13;;;15.65;49.90
21803;BME280;18591;47.080;22.214;2022-11-15T10:12:45;99752.53;;;15.68;50.69
21803;BME280;18591;47.080;22.214;2022-11-15T10:14:57;99750.53;;;15.72;51.06
21803;BME280;18591;47.080;22.214;2022-11-15T10:24:25;99743.81;;;15.95;49.49
21803;BME280;18591;47.080;22.214;2022-11-15T10:26:29;99747.06;;;16.01;49.82
21803;BME280;18591;47.080;22.214;2022-11-15T10:28:31;99738.50;;;16.09;50.32
21803;BME280;18591;47.080;22.214;2022-11-15T10:30:40;99727.72;;;16.07;50.03
21803;BME280;18591;47.080;22.214;2022-11-15T10:32:44;99725.44;;;16.16;49.85
21803;BME280;18591;47.080;22.214;2022-11-15T10:34:48;99721.06;;;16.13;49.31
21803;BME280;18591;47.080;22.214;2022-11-15T10:36:58;99716.19;;;16.20;48.74
21803;BME280;18591;47.080;22.214;2022-11-15T10:39:00;99713.22;;;16.24;49.44
21803;BME280;18591;47.080;22.214;2022-11-15T10:41:07;99720.28;;;16.27;48.86
21803;BME280;18591;47.080;22.214;2022-11-15T10:45:26;99723.34;;;16.37;49.84
21803;BME280;18591;47.080;22.214;2022-11-15T10:47:30;99715.88;;;16.40;49.53
21803;BME280;18591;47.080;22.214;2022-11-15T10:49:54;99709.59;;;16.40;49.41
21803;BME280;18591;47.080;22.214;2022-11-15T10:52:12;99702.72;;;16.48;49.46
21803;BME280;18591;47.080;22.214;2022-11-15T10:54:24;99699.75;;;16.53;49.20
21803;BME280;18591;47.080;22.214;2022-11-15T10:56:27;99702.53;;;16.51;49.46
21803;BME280;18591;47.080;22.214;2022-11-15T10:58:38;99699.66;;;16.54;49.77
21803;BME280;18591;47.080;22.214;2022-11-15T11:00:41;99691.75;;;16.66;49.82
21803;BME280;18591;47.080;22.214;2022-11-15T11:03:05;99686.31;;;16.66;48.92
21803;BME280;18591;47.080;22.214;2022-11-15T11:05:37;99689.31;;;16.61;47.93
21803;BME280;18591;47.080;22.214;2022-11-15T11:11:06;99680.81;;;16.67;49.42
21803;BME280;18591;47.080;22.214;2022-11-15T11:15:30;99693.78;;;16.76;49.49
21803;BME280;18591;47.080;22.214;2022-11-15T11:19:56;99678.25;;;16.80;49.63
21803;BME280;18591;47.080;22.214;2022-11-15T11:27:28;99662.16;;;16.91;47.68
21803;BME280;18591;47.080;22.214;2022-11-15T11:30:00;99651.97;;;16.95;48.65
21803;BME280;18591;47.080;22.214;2022-11-15T11:37:50;99627.19;;;17.01;47.32
21803;BME280;18591;47.080;22.214;2022-11-15T11:40:13;99624.56;;;17.00;47.18
21803;BME280;18591;47.080;22.214;2022-11-15T11:48:04;99620.13;;;16.98;47.43
21803;BME280;18591;47.080;22.214;2022-11-15T11:50:21;99625.13;;;17.05;46.51
21803;BME280;18591;47.080;22.214;2022-11-15T11:56:53;99611.78;;;17.02;48.01
21803;BME280;18591;47.080;22.214;2022-11-15T11:59:02;99610.13;;;16.99;47.82
21803;BME280;18591;47.080;22.214;2022-11-15T12:01:17;99604.59;;;17.01;48.05
21803;BME280;18591;47.080;22.214;2022-11-15T12:03:32;99595.28;;;17.05;48.16
21803;BME280;18591;47.080;22.214;2022-11-15T12:05:51;99589.97;;;17.03;47.87
21803;BME280;18591;47.080;22.214;2022-11-15T12:08:04;99597.22;;;17.03;48.47
21803;BME280;18591;47.080;22.214;2022-11-15T12:10:20;99589.00;;;17.04;48.59
21803;BME280;18591;47.080;22.214;2022-11-15T12:12:44;99591.31;;;16.96;48.15
21803;BME280;18591;47.080;22.214;2022-11-15T12:14:55;99584.91;;;16.97;48.03
21803;BME280;18591;47.080;22.214;2022-11-15T12:16:58;99583.75;;;17.01;49.12
21803;BME280;18591;47.080;22.214;2022-11-15T12:19:04;99583.75;;;17.01;48.85
21803;BME280;18591;47.080;22.214;2022-11-15T12:23:48;99581.63;;;17.06;47.76
21803;BME280;18591;47.080;22.214;2022-11-15T12:26:00;99583.06;;;17.12;48.34
21803;BME280;18591;47.080;22.214;2022-11-15T12:28:29;99588.59;;;17.10;48.53
21803;BME280;18591;47.080;22.214;2022-11-15T12:30:51;99576.28;;;17.05;48.23
21803;BME280;18591;47.080;22.214;2022-11-15T12:33:01;99570.84;;;17.05;48.55
21803;BME280;18591;47.080;22.214;2022-11-15T12:35:06;99578.91;;;17.06;48.58
21803;BME280;18591;47.080;22.214;2022-11-15T12:40:25;99573.84;;;17.00;48.41
21803;BME280;18591;47.080;22.214;2022-11-15T12:45:34;99577.84;;;16.94;48.51
21803;BME280;18591;47.080;22.214;2022-11-15T12:47:37;99573.00;;;17.00;49.23
21803;BME280;18591;47.080;22.214;2022-11-15T12:53:53;99557.41;;;16.89;49.09
21803;BME280;18591;47.080;22.214;2022-11-15T12:58:27;99567.00;;;16.80;49.32
21803;BME280;18591;47.080;22.214;2022-11-15T13:02:45;99570.06;;;16.74;49.33
21803;BME280;18591;47.080;22.214;2022-11-15T13:04:49;99567.16;;;16.77;49.57
21803;BME280;18591;47.080;22.214;2022-11-15T13:08:57;99560.06;;;16.74;49.40
21803;BME280;18591;47.080;22.214;2022-11-15T13:13:44;99556.78;;;16.69;49.75
21803;BME280;18591;47.080;22.214;2022-11-15T13:16:11;99556.31;;;16.63;49.58
21803;BME280;18591;47.080;22.214;2022-11-15T13:18:35;99555.34;;;16.64;49.50
21803;BME280;18591;47.080;22.214;2022-11-15T13:32:48;99542.06;;;16.59;49.39
21803;BME280;18591;47.080;22.214;2022-11-15T13:34:52;99535.97;;;16.55;49.66
21803;BME280;18591;47.080;22.214;2022-11-15T13:36:55;99540.72;;;16.52;50.04
21803;BME280;18591;47.080;22.214;2022-11-15T13:39:25;99527.53;;;16.46;50.00
21803;BME280;18591;47.080;22.214;2022-11-15T13:41:35;99530.34;;;16.44;49.96
21803;BME280;18591;47.080;22.214;2022-11-15T13:43:37;99530.03;;;16.49;49.91
21803;BME280;18591;47.080;22.214;2022-11-15T13:45:39;99528.22;;;16.49;50.20
21803;BME280;18591;47.080;22.214;2022-11-15T13:47:42;99534.81;;;16.45;50.17
21803;BME280;18591;47.080;22.214;2022-11-15T13:49:45;99539.81;;;16.51;50.05
21803;BME280;18591;47.080;22.214;2022-11-15T13:51:50;99537.31;;;16.48;49.81
21803;BME280;18591;47.080;22.214;2022-11-15T13:54:26;99544.88;;;16.43;49.88
21803;BME280;18591;47.080;22.214;2022-11-15T13:56:31;99534.50;;;16.50;50.22
21803;BME280;18591;47.080;22.214;2022-11-15T13:58:38;99535.66;;;16.46;50.34
21803;BME280;18591;47.080;22.214;2022-11-15T14:00:44;99544.88;;;16.43;50.56
21803;BME280;18591;47.080;22.214;2022-11-15T14:02:46;99542.25;;;16.42;50.51
21803;BME280;18591;47.080;22.214;2022-11-15T14:04:57;99544.38;;;16.37;50.56
21803;BME280;18591;47.080;22.214;2022-11-15T14:07:01;99538.19;;;16.35;50.53
21803;BME280;18591;47.080;22.214;2022-11-15T14:11:16;99534.88;;;16.29;50.74
21803;BME280;18591;47.080;22.214;2022-11-15T14:13:30;99535.34;;;16.22;51.01
21803;BME280;18591;47.080;22.214;2022-11-15T14:15:37;99534.19;;;16.26;51.11
21803;BME280;18591;47.080;22.214;2022-11-15T14:17:42;99525.38;;;16.22;51.07
21803;BME280;18591;47.080;22.214;2022-11-15T14:19:51;99528.28;;;16.19;50.84